createdAt,value
2019-05-10T00:02:08.623Z,99623.45
2019-05-10T00:07:30.617Z,99625.86
2019-05-10T00:12:45.843Z,99628.55
2019-05-10T00:17:51.258Z,99636.60
2019-05-10T00:22:55.507Z,99641.69
2019-05-10T00:27:59.745Z,99633.92
2019-05-10T00:33:04.080Z,99639.04
2019-05-10T00:38:08.318Z,99631.53
2019-05-10T00:43:12.586Z,99641.20
2019-05-10T00:48:16.775Z,99642.25
2019-05-10T00:53:21.000Z,99634.48
2019-05-10T00:58:28.089Z,99642.84
2019-05-10T01:03:32.335Z,99642.78
2019-05-10T01:08:36.545Z,99646.27
2019-05-10T01:13:40.770Z,99650.86
2019-05-10T01:18:44.987Z,99651.94
2019-05-10T01:23:49.721Z,99661.59
2019-05-10T01:28:53.940Z,99660.24
2019-05-10T01:33:58.178Z,99657.31
2019-05-10T01:39:02.407Z,99663.24
2019-05-10T01:44:06.631Z,99665.11
2019-05-10T01:49:10.849Z,99664.86
2019-05-10T01:54:15.078Z,99665.95
2019-05-10T01:59:19.386Z,99662.45
2019-05-10T02:04:23.627Z,99668.09
2019-05-10T02:09:27.873Z,99665.14
2019-05-10T02:14:32.107Z,99674.00
2019-05-10T02:19:36.318Z,99675.38
2019-05-10T02:24:40.539Z,99677.75
2019-05-10T02:29:44.970Z,99684.75
2019-05-10T02:34:49.349Z,99685.83
2019-05-10T02:39:53.562Z,99683.69
2019-05-10T02:44:57.773Z,99693.38
2019-05-10T02:50:02.153Z,99698.98
2019-05-10T02:55:07.658Z,99699.27
2019-05-10T03:00:12.610Z,99704.35
2019-05-10T03:05:17.208Z,99710.79
2019-05-10T03:10:21.440Z,99716.16
2019-05-10T03:15:28.623Z,99716.95
2019-05-10T03:20:36.085Z,99718.81
2019-05-10T03:25:40.295Z,99718.30
2019-05-10T03:30:44.598Z,99723.86
2019-05-10T03:35:48.949Z,99732.08
2019-05-10T03:40:53.567Z,99736.67
2019-05-10T03:45:57.750Z,99734.56
2019-05-10T03:51:02.146Z,99737.69
2019-05-10T03:56:06.416Z,99751.94
2019-05-10T04:01:10.642Z,99759.45
2019-05-10T04:06:14.869Z,99758.12
2019-05-10T04:11:19.094Z,99773.02
2019-05-10T04:16:23.309Z,99788.03
2019-05-10T04:21:27.532Z,99787.00
2019-05-10T04:26:31.768Z,99788.66
2019-05-10T04:31:36.350Z,99796.60
2019-05-10T04:36:40.585Z,99806.22
2019-05-10T04:41:44.828Z,99810.25
2019-05-10T04:46:49.055Z,99815.64
2019-05-10T04:51:53.276Z,99814.02
2019-05-10T04:57:00.060Z,99817.55
2019-05-10T05:02:03.454Z,99822.98
2019-05-10T05:07:07.749Z,99826.36
2019-05-10T05:12:11.973Z,99827.25
2019-05-10T05:17:16.208Z,99835.84
2019-05-10T05:22:20.437Z,99833.70
2019-05-10T05:27:25.765Z,99834.03
2019-05-10T05:32:30.005Z,99842.66
2019-05-10T05:37:34.257Z,99848.06
2019-05-10T05:42:38.491Z,99855.94
2019-05-10T05:47:44.849Z,99858.30
2019-05-10T05:52:48.763Z,99861.58
2019-05-10T05:57:52.978Z,99871.98
2019-05-10T06:02:57.193Z,99869.28
2019-05-10T06:08:01.760Z,99876.05
2019-05-10T06:13:06.132Z,99875.28
2019-05-10T06:18:12.156Z,99890.70
2019-05-10T06:23:16.583Z,99890.86
2019-05-10T06:28:27.044Z,99892.97
2019-05-10T06:33:26.954Z,99898.15
2019-05-10T06:38:31.203Z,99909.61
2019-05-10T06:43:35.430Z,99909.37
2019-05-10T06:48:39.686Z,99910.75
2019-05-10T06:53:52.176Z,99906.47
2019-05-10T06:58:49.897Z,99913.81
2019-05-10T07:03:54.119Z,99913.42
2019-05-10T07:08:59.529Z,99921.89
2019-05-10T07:14:03.939Z,99925.96
2019-05-10T07:19:08.373Z,99921.43
2019-05-10T07:24:12.595Z,99918.73
2019-05-10T07:29:29.562Z,99926.04
2019-05-10T07:34:22.789Z,99930.88
2019-05-10T07:39:27.013Z,99940.84
2019-05-10T07:44:31.265Z,99949.48
2019-05-10T07:49:35.514Z,99946.43
2019-05-10T07:54:45.128Z,99958.36
2019-05-10T07:59:50.924Z,99961.81
2019-05-10T08:04:53.768Z,99973.44
2019-05-10T08:09:59.432Z,99979.38
2019-05-10T08:15:03.781Z,99983.14
2019-05-10T08:20:08.923Z,99988.27
2019-05-10T08:25:15.301Z,99992.05
2019-05-10T08:30:35.286Z,100000.36
2019-05-10T08:35:43.412Z,100002.20
2019-05-10T08:40:45.942Z,100010.81
2019-05-10T08:45:52.432Z,99998.21
2019-05-10T08:50:57.604Z,100010.34
2019-05-10T08:56:07.420Z,100017.28
2019-05-10T09:01:20.568Z,100013.53
2019-05-10T09:06:16.950Z,100021.05
2019-05-10T09:11:22.959Z,100020.13
2019-05-10T09:16:29.082Z,100027.47
2019-05-10T09:21:32.921Z,100030.77
2019-05-10T09:26:37.350Z,100033.45
2019-05-10T09:31:45.886Z,100045.06
2019-05-10T09:36:47.578Z,100044.54
2019-05-10T09:41:52.761Z,100042.83
2019-05-10T09:46:57.281Z,100041.23
2019-05-10T09:52:04.583Z,100048.08
2019-05-10T09:57:08.253Z,100047.13
2019-05-10T10:02:18.713Z,100052.25
2019-05-10T10:07:18.987Z,100067.34
2019-05-10T10:12:23.486Z,100075.56
2019-05-10T10:17:30.667Z,100073.16
2019-05-10T10:22:33.879Z,100086.64
2019-05-10T10:27:39.525Z,100095.53
2019-05-10T10:32:44.592Z,100102.80
2019-05-10T10:37:49.086Z,100107.12
2019-05-10T10:42:53.669Z,100107.66
2019-05-10T10:48:02.386Z,100109.28
2019-05-10T10:53:04.097Z,100113.83
2019-05-10T10:58:08.339Z,100100.42
2019-05-10T11:03:12.601Z,100103.59
2019-05-10T11:08:16.845Z,100104.02
2019-05-10T11:13:40.632Z,100108.59
2019-05-10T11:18:27.129Z,100107.20
2019-05-10T11:23:38.984Z,100120.02
2019-05-10T11:28:39.987Z,100120.64
2019-05-10T11:33:47.433Z,100134.72
2019-05-10T11:38:56.891Z,100133.89
2019-05-10T11:43:58.124Z,100134.44
2019-05-10T11:49:01.851Z,100145.25
2019-05-10T11:54:06.368Z,100136.50
2019-05-10T11:59:15.898Z,100134.55
2019-05-10T12:04:28.757Z,100133.93
2019-05-10T12:09:24.475Z,100144.57
2019-05-10T12:14:29.135Z,100141.61
2019-05-10T12:19:44.571Z,100145.06
2019-05-10T12:24:57.312Z,100151.50
2019-05-10T12:29:46.516Z,100138.50
2019-05-10T12:34:56.357Z,100149.88
2019-05-10T12:40:06.252Z,100156.84
2019-05-10T12:45:03.758Z,100167.28
2019-05-10T12:50:08.530Z,100190.14
2019-05-10T12:55:13.070Z,100200.63
2019-05-10T13:00:18.043Z,100205.23
2019-05-10T13:05:31.126Z,100214.67
2019-05-10T13:10:28.352Z,100217.14
2019-05-10T13:15:33.487Z,100224.79
2019-05-10T13:20:38.736Z,100227.75
2019-05-10T13:25:43.110Z,100236.39
2019-05-10T13:30:47.345Z,100242.08
2019-05-10T13:35:56.550Z,100246.41
2019-05-10T13:40:57.533Z,100250.36
2019-05-10T13:46:01.770Z,100258.80
2019-05-10T13:51:06.018Z,100255.11
2019-05-10T13:56:10.269Z,100257.95
2019-05-10T14:01:14.834Z,100266.23
2019-05-10T14:06:19.352Z,100263.78
2019-05-10T14:11:23.601Z,100268.75
2019-05-10T14:16:27.839Z,100262.27
2019-05-10T14:21:32.081Z,100259.27
2019-05-10T14:26:37.357Z,100268.37
2019-05-10T14:31:41.627Z,100269.69
2019-05-10T14:36:46.582Z,100265.77
2019-05-10T14:41:52.424Z,100265.24
2019-05-10T14:46:56.882Z,100257.69
2019-05-10T14:52:01.123Z,100264.64
2019-05-10T14:57:05.424Z,100259.58
2019-05-10T15:02:09.672Z,100256.47
2019-05-10T15:07:16.425Z,100263.84
2019-05-10T15:12:22.754Z,100269.09
2019-05-10T15:17:29.738Z,100271.72
2019-05-10T15:22:32.034Z,100275.06
2019-05-10T15:27:36.307Z,100278.38
2019-05-10T15:32:40.802Z,100280.81
2019-05-10T15:37:46.157Z,100290.28
2019-05-10T15:42:51.113Z,100290.60
2019-05-10T15:47:57.473Z,100333.41
2019-05-10T15:53:01.351Z,100347.59
2019-05-10T15:58:05.771Z,100352.87
2019-05-10T16:03:10.122Z,100348.50
2019-05-10T16:08:14.362Z,100349.19
2019-05-10T16:13:23.642Z,100354.53
2019-05-10T16:18:24.600Z,100370.77
2019-05-10T16:23:28.864Z,100369.95
2019-05-10T16:28:33.097Z,100380.86
2019-05-10T16:33:37.576Z,100387.09
2019-05-10T16:38:42.011Z,100403.52
2019-05-10T16:43:46.449Z,100405.71
2019-05-10T16:48:50.813Z,100401.03
2019-05-10T16:53:55.042Z,100405.38
2019-05-10T16:58:59.686Z,100413.67
2019-05-10T17:04:04.049Z,100423.63
2019-05-10T17:09:17.867Z,100426.41
2019-05-10T17:14:17.926Z,100428.33
2019-05-10T17:19:21.243Z,100437.83
2019-05-10T17:24:25.612Z,100438.08
2019-05-10T17:29:29.859Z,100452.89
2019-05-10T17:34:34.235Z,100458.97
2019-05-10T17:39:38.661Z,100467.58
2019-05-10T17:44:43.816Z,100480.91
2019-05-10T17:49:48.232Z,100478.22
2019-05-10T17:54:52.472Z,100487.50
2019-05-10T17:59:56.712Z,100493.98
2019-05-10T18:05:06.082Z,100501.68
2019-05-10T18:10:07.265Z,100498.05
2019-05-10T18:15:11.705Z,100509.31
2019-05-10T18:20:15.967Z,100512.67
2019-05-10T18:25:22.298Z,100526.73
2019-05-10T18:30:26.228Z,100526.13
2019-05-10T18:35:31.304Z,100534.84
2019-05-10T18:40:35.728Z,100546.81
2019-05-10T18:45:40.071Z,100544.19
2019-05-10T18:50:45.427Z,100557.91
2019-05-10T18:55:50.313Z,100562.81
2019-05-10T19:01:00.589Z,100573.61
2019-05-10T19:06:04.093Z,100592.36
2019-05-10T19:11:08.276Z,100584.04
2019-05-10T19:16:12.796Z,100597.09
2019-05-10T19:21:17.993Z,100599.05
2019-05-10T19:26:28.912Z,100605.31
2019-05-10T19:31:31.488Z,100608.23
2019-05-10T19:36:35.541Z,100622.35
2019-05-10T19:41:39.825Z,100621.88
2019-05-10T19:46:44.135Z,100622.67
2019-05-10T19:51:50.271Z,100630.84
2019-05-10T19:56:55.454Z,100630.98
2019-05-10T20:01:59.941Z,100628.30
2019-05-10T20:07:04.300Z,100631.17
2019-05-10T20:12:08.741Z,100642.16
2019-05-10T20:17:13.441Z,100639.70
2019-05-10T20:22:17.890Z,100648.36
2019-05-10T20:27:22.140Z,100647.52
2019-05-10T20:32:26.392Z,100649.57
2019-05-10T20:37:30.643Z,100659.27
2019-05-10T20:42:34.892Z,100659.49
2019-05-10T20:47:39.251Z,100658.09
2019-05-10T20:52:43.527Z,100659.51
2019-05-10T20:57:47.876Z,100667.38
2019-05-10T21:02:52.124Z,100680.59
2019-05-10T21:07:56.364Z,100670.72
2019-05-10T21:13:00.645Z,100665.80
2019-05-10T21:18:06.174Z,100665.97
2019-05-10T21:23:10.423Z,100664.12
2019-05-10T21:28:14.685Z,100654.94
2019-05-10T21:33:18.922Z,100661.44
2019-05-10T21:38:32.565Z,100668.62
2019-05-10T21:43:29.222Z,100675.02
2019-05-10T21:48:33.510Z,100674.31
2019-05-10T21:53:37.757Z,100670.41
2019-05-10T21:58:42.041Z,100676.81
2019-05-10T22:03:46.320Z,100665.98
2019-05-10T22:08:50.753Z,100668.55
2019-05-10T22:13:55.056Z,100678.23
2019-05-10T22:19:01.361Z,100685.09
2019-05-10T22:24:06.025Z,100680.61
2019-05-10T22:29:10.265Z,100688.11
2019-05-10T22:34:14.647Z,100690.48
2019-05-10T22:39:19.008Z,100706.81
2019-05-10T22:44:23.304Z,100713.06
2019-05-10T22:49:27.598Z,100714.41
2019-05-10T22:54:32.841Z,100711.69
2019-05-10T22:59:37.114Z,100720.83
2019-05-10T23:04:41.385Z,100716.50
2019-05-10T23:09:45.822Z,100715.30
2019-05-10T23:14:50.074Z,100721.53
2019-05-10T23:19:54.480Z,100726.66
2019-05-10T23:24:58.911Z,100712.56
2019-05-10T23:30:03.250Z,100725.05
2019-05-10T23:35:08.376Z,100729.81
2019-05-10T23:40:12.827Z,100740.97
2019-05-10T23:45:17.098Z,100754.70
2019-05-10T23:50:21.422Z,100756.72
2019-05-10T23:55:25.746Z,100756.55
